createdAt,value
2022-11-19T00:01:34.420Z,98762.97
2022-11-19T00:04:02.300Z,98775.22
2022-11-19T00:06:29.803Z,98786.38
2022-11-19T00:08:57.240Z,98785.12
2022-11-19T00:11:46.903Z,98784.00
2022-11-19T00:14:15.890Z,98786.03
2022-11-19T00:16:44.088Z,98800.38
2022-11-19T00:19:12.217Z,98803.53
2022-11-19T00:21:39.727Z,98800.31
2022-11-19T00:24:08.206Z,98802.00
2022-11-19T00:26:35.654Z,98804.50
2022-11-19T00:29:03.545Z,98814.59
2022-11-19T00:31:31.933Z,98814.09
2022-11-19T00:33:59.400Z,98813.44
2022-11-19T00:36:26.852Z,98816.28
2022-11-19T00:38:54.750Z,98814.94
2022-11-19T00:41:22.408Z,98811.72
2022-11-19T00:43:50.531Z,98815.72
2022-11-19T00:46:21.358Z,98823.25
2022-11-19T00:48:50.382Z,98816.22
2022-11-19T00:51:18.849Z,98815.75
2022-11-19T00:53:47.285Z,98821.38
2022-11-19T00:56:16.931Z,98824.50
2022-11-19T00:58:44.870Z,98838.72
2022-11-19T01:01:13.460Z,98844.03
2022-11-19T01:03:41.937Z,98854.50
2022-11-19T01:06:10.045Z,98865.28
2022-11-19T01:08:38.123Z,98885.47
2022-11-19T01:11:11.127Z,98897.16
2022-11-19T01:13:39.619Z,98899.19
2022-11-19T01:16:09.361Z,98899.91
2022-11-19T01:18:40.653Z,98902.41
2022-11-19T01:21:11.198Z,98905.44
2022-11-19T01:23:42.607Z,98910.13
2022-11-19T01:26:11.722Z,98915.16
2022-11-19T01:28:39.544Z,98925.09
2022-11-19T01:31:13.054Z,98930.78
2022-11-19T01:33:40.857Z,98929.13
2022-11-19T01:36:11.694Z,98921.28
2022-11-19T01:38:39.910Z,98924.44
2022-11-19T01:41:08.229Z,98914.94
2022-11-19T01:43:53.427Z,98924.44
2022-11-19T01:46:24.019Z,98927.34
2022-11-19T01:49:00.566Z,98935.31
2022-11-19T01:51:52.095Z,98931.19
2022-11-19T01:54:35.051Z,98946.88
2022-11-19T01:57:14.883Z,98939.56
2022-11-19T01:59:44.301Z,98953.94
2022-11-19T02:02:12.885Z,98961.50
2022-11-19T02:04:44.909Z,98957.13
2022-11-19T02:07:12.712Z,98975.00
2022-11-19T02:09:41.392Z,98995.19
2022-11-19T02:12:39.890Z,98996.06
2022-11-19T02:15:39.601Z,98994.41
2022-11-19T02:18:23.206Z,98991.28
2022-11-19T02:20:55.840Z,98997.44
2022-11-19T02:23:44.742Z,98987.94
2022-11-19T02:26:47.378Z,98984.47
2022-11-19T02:29:32.151Z,98991.75
2022-11-19T02:32:03.833Z,99001.47
2022-11-19T02:34:47.789Z,99020.59
2022-11-19T02:37:31.776Z,99019.84
2022-11-19T02:40:10.383Z,99037.25
2022-11-19T02:43:01.756Z,99047.69
2022-11-19T02:45:43.415Z,99054.19
2022-11-19T02:48:13.224Z,99066.25
2022-11-19T02:50:45.393Z,99077.94
2022-11-19T02:53:12.847Z,99066.91
2022-11-19T02:55:41.194Z,99065.94
2022-11-19T02:58:31.793Z,99062.63
2022-11-19T03:01:19.361Z,99062.47
2022-11-19T03:04:10.679Z,99070.66
2022-11-19T03:06:39.173Z,99070.94
2022-11-19T03:09:06.596Z,99081.59
2022-11-19T03:11:34.023Z,99087.97
2022-11-19T03:14:27.977Z,99077.03
2022-11-19T03:16:59.293Z,99101.16
2022-11-19T03:19:34.220Z,99099.75
2022-11-19T03:22:35.219Z,99110.91
2022-11-19T03:25:07.498Z,99094.78
2022-11-19T03:27:50.661Z,99086.13
2022-11-19T03:30:20.001Z,99102.63
2022-11-19T03:32:51.624Z,99109.41
2022-11-19T03:35:22.894Z,99113.41
2022-11-19T03:37:53.097Z,99113.84
2022-11-19T03:40:22.144Z,99119.56
2022-11-19T03:42:51.487Z,99120.97
2022-11-19T03:45:21.590Z,99127.59
2022-11-19T03:47:50.535Z,99124.19
2022-11-19T03:50:41.086Z,99119.31
2022-11-19T03:53:08.979Z,99138.59
2022-11-19T03:55:44.781Z,99139.06
2022-11-19T03:58:12.964Z,99144.31
2022-11-19T04:00:40.421Z,99148.59
2022-11-19T04:03:08.223Z,99146.38
2022-11-19T04:05:35.673Z,99140.28
2022-11-19T04:08:03.193Z,99145.19
2022-11-19T04:10:30.966Z,99153.63
2022-11-19T04:12:59.645Z,99169.09
2022-11-19T04:15:27.107Z,99172.88
2022-11-19T04:17:55.150Z,99175.12
2022-11-19T04:20:22.813Z,99178.97
2022-11-19T04:22:52.370Z,99186.44
2022-11-19T04:25:20.356Z,99191.06
2022-11-19T04:27:49.134Z,99197.28
2022-11-19T04:30:16.818Z,99215.72
2022-11-19T04:32:44.602Z,99208.78
2022-11-19T04:35:14.077Z,99213.19
2022-11-19T04:37:41.573Z,99207.19
2022-11-19T04:40:09.873Z,99230.53
2022-11-19T04:42:37.329Z,99233.34
2022-11-19T04:45:05.023Z,99249.19
2022-11-19T04:47:32.750Z,99245.19
2022-11-19T04:50:00.184Z,99247.44
2022-11-19T04:52:27.638Z,99252.88
2022-11-19T04:54:55.900Z,99270.31
2022-11-19T04:57:23.515Z,99278.56
2022-11-19T04:59:50.961Z,99290.31
2022-11-19T05:02:18.727Z,99295.56
2022-11-19T05:04:46.130Z,99293.56
2022-11-19T05:07:13.534Z,99296.97
2022-11-19T05:09:41.285Z,99296.19
2022-11-19T05:12:08.684Z,99302.34
2022-11-19T05:14:38.497Z,99294.69
2022-11-19T05:17:06.245Z,99293.13
2022-11-19T05:19:34.944Z,99303.94
2022-11-19T05:22:03.672Z,99300.84
2022-11-19T05:24:31.544Z,99310.06
2022-11-19T05:26:59.152Z,99307.91
2022-11-19T05:29:26.810Z,99311.03
2022-11-19T05:31:56.690Z,99312.22
2022-11-19T05:34:24.106Z,99306.16
2022-11-19T05:37:49.958Z,99311.44
2022-11-19T05:40:18.276Z,99317.56
2022-11-19T05:42:45.694Z,99327.22
2022-11-19T05:45:13.163Z,99333.84
2022-11-19T05:47:44.676Z,99336.38
2022-11-19T05:50:16.464Z,99342.78
2022-11-19T05:52:44.272Z,99346.59
2022-11-19T05:55:11.702Z,99358.16
2022-11-19T05:57:39.137Z,99345.16
2022-11-19T06:00:08.090Z,99349.41
2022-11-19T06:02:40.107Z,99367.91
2022-11-19T06:05:08.477Z,99369.84
2022-11-19T06:07:36.320Z,99368.06
2022-11-19T06:10:04.076Z,99384.37
2022-11-19T06:12:31.948Z,99372.16
2022-11-19T06:15:00.808Z,99376.66
2022-11-19T06:17:29.026Z,99399.72
2022-11-19T06:19:57.285Z,99395.84
2022-11-19T06:22:24.852Z,99406.16
2022-11-19T06:24:52.380Z,99407.94
2022-11-19T06:27:20.166Z,99407.25
2022-11-19T06:29:50.100Z,99418.38
2022-11-19T06:32:21.367Z,99410.53
2022-11-19T06:34:48.866Z,99408.66
2022-11-19T06:37:16.618Z,99416.56
2022-11-19T06:39:44.376Z,99419.91
2022-11-19T06:42:30.448Z,99428.44
2022-11-19T06:44:58.283Z,99425.28
2022-11-19T06:47:25.734Z,99423.97
2022-11-19T06:49:53.168Z,99419.69
2022-11-19T06:52:20.893Z,99416.28
2022-11-19T06:54:48.367Z,99417.75
2022-11-19T06:57:15.939Z,99427.88
2022-11-19T06:59:43.722Z,99429.22
2022-11-19T07:02:12.155Z,99430.44
2022-11-19T07:04:39.616Z,99421.50
2022-11-19T07:07:07.477Z,99425.88
2022-11-19T07:09:35.074Z,99431.91
2022-11-19T07:12:02.762Z,99440.75
2022-11-19T07:14:30.659Z,99440.75
2022-11-19T07:16:58.245Z,99441.94
2022-11-19T07:19:25.976Z,99440.19
2022-11-19T07:21:54.877Z,99445.28
2022-11-19T07:24:22.867Z,99448.34
2022-11-19T07:26:50.499Z,99440.41
2022-11-19T07:29:20.150Z,99447.09
2022-11-19T07:32:02.585Z,99449.34
2022-11-19T07:34:44.533Z,99458.84
2022-11-19T07:37:26.498Z,99455.44
2022-11-19T07:40:11.134Z,99464.78
2022-11-19T07:42:53.624Z,99446.41
2022-11-19T07:45:40.630Z,99444.53
2022-11-19T07:48:22.701Z,99437.81
2022-11-19T07:51:04.562Z,99449.41
2022-11-19T07:53:53.002Z,99437.03
2022-11-19T07:56:35.807Z,99440.38
2022-11-19T07:59:27.143Z,99445.28
2022-11-19T08:02:19.510Z,99445.28
2022-11-19T08:04:47.276Z,99446.31
2022-11-19T08:07:15.053Z,99452.37
2022-11-19T08:09:42.823Z,99449.31
2022-11-19T08:12:10.692Z,99450.19
2022-11-19T08:14:38.378Z,99455.28
2022-11-19T08:17:24.679Z,99455.06
2022-11-19T08:19:52.546Z,99462.16
2022-11-19T08:22:20.027Z,99469.38
2022-11-19T08:24:47.547Z,99478.38
2022-11-19T08:27:15.717Z,99485.72
2022-11-19T08:29:43.319Z,99480.44
2022-11-19T08:32:10.936Z,99487.09
2022-11-19T08:34:39.332Z,99486.88
2022-11-19T08:37:07.430Z,99499.59
2022-11-19T08:39:35.729Z,99500.56
2022-11-19T08:42:22.346Z,99500.09
2022-11-19T08:44:49.795Z,99501.16
2022-11-19T08:47:17.599Z,99512.81
2022-11-19T08:49:45.153Z,99514.78
2022-11-19T08:52:14.428Z,99509.59
2022-11-19T08:54:42.394Z,99493.16
2022-11-19T08:57:09.929Z,99478.25
2022-11-19T08:59:37.431Z,99485.97
2022-11-19T09:02:05.339Z,99527.56
2022-11-19T09:04:32.842Z,99551.94
2022-11-19T09:07:00.468Z,99564.34
2022-11-19T09:09:28.611Z,99569.13
2022-11-19T09:11:56.146Z,99576.50
2022-11-19T09:14:23.633Z,99574.00
2022-11-19T09:16:51.465Z,99576.56
2022-11-19T09:19:19.063Z,99568.41
2022-11-19T09:21:46.517Z,99564.09
2022-11-19T09:24:14.556Z,99569.06
2022-11-19T09:26:42.097Z,99572.41
2022-11-19T09:29:09.713Z,99571.53
2022-11-19T09:31:37.668Z,99567.63
2022-11-19T09:34:05.992Z,99577.09
2022-11-19T09:36:33.442Z,99575.72
2022-11-19T09:39:02.280Z,99563.81
2022-11-19T09:42:01.042Z,99577.44
2022-11-19T09:44:44.173Z,99584.06
2022-11-19T09:47:40.678Z,99583.69
2022-11-19T09:50:19.244Z,99595.41
2022-11-19T09:52:55.093Z,99604.72
2022-11-19T09:55:33.162Z,99590.94
2022-11-19T09:58:07.541Z,99603.59
2022-11-19T10:00:35.336Z,99598.97
2022-11-19T10:03:13.485Z,99607.63
2022-11-19T10:06:15.842Z,99591.47
2022-11-19T10:09:20.996Z,99585.81
2022-11-19T10:12:09.018Z,99590.00
2022-11-19T10:14:49.112Z,99583.72
2022-11-19T10:17:25.642Z,99579.69
2022-11-19T10:20:00.989Z,99583.97
2022-11-19T10:22:36.246Z,99574.31
2022-11-19T10:25:27.183Z,99577.41
2022-11-19T10:28:05.417Z,99563.00
2022-11-19T10:30:33.526Z,99569.59
2022-11-19T10:33:04.098Z,99565.94
2022-11-19T10:35:39.370Z,99568.69
2022-11-19T10:38:16.895Z,99579.06
2022-11-19T10:40:47.016Z,99572.13
2022-11-19T10:43:23.460Z,99564.91
2022-11-19T10:45:51.181Z,99569.84
2022-11-19T10:48:23.175Z,99567.00
2022-11-19T10:50:51.997Z,99570.62
2022-11-19T10:53:27.055Z,99558.72
2022-11-19T10:56:01.466Z,99554.41
2022-11-19T10:58:32.523Z,99562.84
2022-11-19T11:01:01.767Z,99566.22
2022-11-19T11:03:37.036Z,99576.09
2022-11-19T11:06:07.571Z,99575.63
2022-11-19T11:08:54.044Z,99589.91
2022-11-19T11:11:51.353Z,99590.37
2022-11-19T11:14:39.802Z,99598.41
2022-11-19T11:17:27.903Z,99594.81
2022-11-19T11:19:57.975Z,99607.94
2022-11-19T11:22:26.408Z,99597.25
2022-11-19T11:25:05.723Z,99613.84
2022-11-19T11:27:35.629Z,99614.28
2022-11-19T11:30:12.758Z,99612.91
2022-11-19T11:32:41.701Z,99607.34
2022-11-19T11:35:33.182Z,99623.91
2022-11-19T11:38:01.765Z,99610.59
2022-11-19T11:40:29.911Z,99603.63
2022-11-19T11:42:58.213Z,99593.81
2022-11-19T11:45:32.119Z,99598.88
2022-11-19T11:48:06.789Z,99593.59
2022-11-19T11:50:35.743Z,99600.41
2022-11-19T11:53:08.795Z,99601.41
2022-11-19T11:55:38.714Z,99596.84
2022-11-19T11:58:24.719Z,99596.34
2022-11-19T12:01:15.311Z,99599.03
2022-11-19T12:03:58.085Z,99600.34
2022-11-19T12:06:36.508Z,99595.50
2022-11-19T12:09:28.825Z,99592.31
2022-11-19T12:12:04.513Z,99591.56
2022-11-19T12:14:40.666Z,99587.25
2022-11-19T12:17:14.235Z,99576.41
2022-11-19T12:20:00.396Z,99576.44
2022-11-19T12:22:36.383Z,99585.78
2022-11-19T12:25:14.496Z,99578.00
2022-11-19T12:28:22.485Z,99578.28
2022-11-19T12:31:29.652Z,99581.78
2022-11-19T12:34:14.613Z,99569.03
2022-11-19T12:36:45.823Z,99560.97
2022-11-19T12:39:41.685Z,99562.06
2022-11-19T12:43:03.394Z,99559.34
2022-11-19T12:45:42.088Z,99540.81
2022-11-19T12:48:22.801Z,99560.44
2022-11-19T12:51:15.098Z,99568.66
2022-11-19T12:54:11.608Z,99566.66
2022-11-19T12:57:10.161Z,99565.06
2022-11-19T13:00:06.144Z,99579.63
2022-11-19T13:02:51.393Z,99573.63
2022-11-19T13:05:28.062Z,99577.16
2022-11-19T13:08:03.313Z,99571.22
2022-11-19T13:10:36.339Z,99571.59
2022-11-19T13:13:07.784Z,99576.84
2022-11-19T13:15:42.902Z,99556.41
2022-11-19T13:18:14.134Z,99571.91
2022-11-19T13:20:56.056Z,99572.50
2022-11-19T13:23:41.739Z,99581.72
2022-11-19T13:26:31.089Z,99589.44
2022-11-19T13:29:16.780Z,99590.41
2022-11-19T13:32:21.981Z,99584.09
2022-11-19T13:35:23.002Z,99589.13
2022-11-19T13:37:59.885Z,99592.66
2022-11-19T13:40:44.501Z,99593.12
2022-11-19T13:43:41.397Z,99597.00
2022-11-19T13:46:22.287Z,99603.38
2022-11-19T13:49:22.797Z,99601.88
2022-11-19T13:52:01.117Z,99613.97
2022-11-19T13:54:37.241Z,99610.22
2022-11-19T13:57:07.351Z,99607.91
2022-11-19T13:59:40.595Z,99603.25
2022-11-19T14:02:11.290Z,99600.94
2022-11-19T14:04:52.073Z,99600.19
2022-11-19T14:07:44.780Z,99600.66
2022-11-19T14:10:12.456Z,99605.16
2022-11-19T14:12:45.776Z,99603.50
2022-11-19T14:15:42.519Z,99601.53
2022-11-19T14:18:51.509Z,99600.62
2022-11-19T14:21:43.943Z,99601.41
2022-11-19T14:24:42.570Z,99594.19
2022-11-19T14:27:20.293Z,99593.75
2022-11-19T14:29:47.727Z,99579.16
2022-11-19T14:32:15.543Z,99581.03
2022-11-19T14:34:46.895Z,99592.97
2022-11-19T14:37:25.273Z,99594.94
2022-11-19T14:40:00.237Z,99594.63
2022-11-19T14:42:28.288Z,99599.47
2022-11-19T14:45:01.857Z,99602.28
2022-11-19T14:47:34.581Z,99604.34
2022-11-19T14:50:21.577Z,99609.75
2022-11-19T14:53:04.507Z,99635.34
2022-11-19T14:55:53.408Z,99633.31
2022-11-19T14:58:35.431Z,99626.09
2022-11-19T15:01:21.225Z,99628.91
2022-11-19T15:04:06.727Z,99629.66
2022-11-19T15:06:48.782Z,99622.22
2022-11-19T15:10:02.621Z,99632.22
2022-11-19T15:12:44.227Z,99639.41
2022-11-19T15:15:41.185Z,99632.84
2022-11-19T15:18:32.654Z,99630.16
2022-11-19T15:21:40.801Z,99624.91
2022-11-19T15:24:42.846Z,99626.53
2022-11-19T15:27:56.583Z,99631.94
2022-11-19T15:30:56.836Z,99642.47
2022-11-19T15:34:12.735Z,99643.72
2022-11-19T15:36:41.741Z,99630.09
2022-11-19T15:39:16.764Z,99632.56
2022-11-19T15:42:00.607Z,99631.62
2022-11-19T15:44:33.938Z,99638.47
2022-11-19T15:47:04.930Z,99639.12
2022-11-19T15:49:33.392Z,99641.69
2022-11-19T15:52:30.875Z,99652.75
2022-11-19T15:55:12.186Z,99652.91
2022-11-19T15:57:44.276Z,99642.16
2022-11-19T16:00:30.009Z,99636.03
2022-11-19T16:02:58.637Z,99640.06
2022-11-19T16:09:24.987Z,99630.63
2022-11-19T16:12:11.184Z,99629.13
2022-11-19T16:14:57.541Z,99642.59
2022-11-19T16:17:36.920Z,99640.09
2022-11-19T16:20:30.301Z,99657.75
2022-11-19T16:23:01.751Z,99656.94
2022-11-19T16:25:49.737Z,99675.03
2022-11-19T16:28:20.086Z,99677.53
2022-11-19T16:30:50.604Z,99692.28
2022-11-19T16:33:23.633Z,99697.44
2022-11-19T16:35:53.458Z,99697.16
2022-11-19T16:38:27.921Z,99699.66
2022-11-19T16:41:15.067Z,99698.88
2022-11-19T16:43:44.843Z,99700.78
2022-11-19T16:46:16.038Z,99708.19
2022-11-19T16:48:49.643Z,99708.50
2022-11-19T16:51:34.046Z,99705.59
2022-11-19T16:54:40.310Z,99706.56
2022-11-19T16:57:09.338Z,99707.28
2022-11-19T16:59:37.121Z,99712.72
2022-11-19T17:02:04.720Z,99712.59
2022-11-19T17:04:32.862Z,99717.91
2022-11-19T17:07:03.424Z,99721.78
2022-11-19T17:09:45.404Z,99723.91
2022-11-19T17:12:53.672Z,99717.13
2022-11-19T17:15:40.889Z,99714.72
2022-11-19T17:18:16.617Z,99712.75
2022-11-19T17:20:44.125Z,99709.41
2022-11-19T17:23:29.187Z,99725.84
2022-11-19T17:26:06.727Z,99716.84
2022-11-19T17:28:55.142Z,99714.22
2022-11-19T17:31:27.012Z,99722.31
2022-11-19T17:34:12.449Z,99729.50
2022-11-19T17:36:40.283Z,99731.19
2022-11-19T17:39:12.275Z,99735.31
2022-11-19T17:41:58.965Z,99731.72
2022-11-19T17:44:40.413Z,99737.22
2022-11-19T17:47:23.745Z,99719.81
2022-11-19T17:49:52.532Z,99707.56
2022-11-19T17:52:25.282Z,99704.84
2022-11-19T17:54:56.094Z,99711.22
2022-11-19T17:57:23.878Z,99712.37
2022-11-19T17:59:51.831Z,99698.38
2022-11-19T18:02:20.744Z,99691.13
2022-11-19T18:04:49.155Z,99693.22
2022-11-19T18:07:17.714Z,99696.53
2022-11-19T18:09:45.256Z,99695.63
2022-11-19T18:12:16.070Z,99704.31
2022-11-19T18:14:44.387Z,99705.53
2022-11-19T18:17:14.350Z,99707.91
2022-11-19T18:19:42.764Z,99695.78
2022-11-19T18:22:17.004Z,99697.44
2022-11-19T18:24:52.587Z,99697.84
2022-11-19T18:27:20.186Z,99688.72
2022-11-19T18:29:48.422Z,99682.03
2022-11-19T18:32:17.064Z,99691.75
2022-11-19T18:34:46.034Z,99696.22
2022-11-19T18:37:14.359Z,99700.94
2022-11-19T18:39:41.882Z,99705.69
2022-11-19T18:42:11.349Z,99705.09
2022-11-19T18:44:43.704Z,99705.75
2022-11-19T18:47:14.109Z,99700.62
2022-11-19T18:49:42.283Z,99695.66
2022-11-19T18:52:15.214Z,99688.84
2022-11-19T18:54:43.500Z,99684.56
2022-11-19T18:57:11.737Z,99673.91
2022-11-19T18:59:40.095Z,99681.81
2022-11-19T19:02:09.954Z,99691.34
2022-11-19T19:04:52.717Z,99691.84
2022-11-19T19:07:35.945Z,99697.84
2022-11-19T19:10:18.438Z,99704.16
2022-11-19T19:13:00.529Z,99699.56
2022-11-19T19:15:42.547Z,99694.00
2022-11-19T19:18:24.458Z,99692.84
2022-11-19T19:21:20.023Z,99698.75
2022-11-19T19:24:05.321Z,99698.50
2022-11-19T19:26:47.512Z,99704.66
2022-11-19T19:34:02.397Z,99714.22
2022-11-19T19:36:47.619Z,99714.75
2022-11-19T19:39:26.448Z,99697.59
2022-11-19T19:42:08.424Z,99694.56
2022-11-19T19:44:50.356Z,99702.09
2022-11-19T19:47:32.338Z,99694.59
2022-11-19T19:50:14.702Z,99691.03
2022-11-19T19:53:09.690Z,99698.06
2022-11-19T19:55:52.994Z,99696.94
2022-11-19T19:58:35.510Z,99710.25
2022-11-19T20:01:20.167Z,99706.22
2022-11-19T20:04:14.369Z,99708.47
2022-11-19T20:06:58.328Z,99708.38
2022-11-19T20:09:40.376Z,99709.41
2022-11-19T20:12:20.261Z,99718.66
2022-11-19T20:15:02.314Z,99731.00
2022-11-19T20:17:30.212Z,99731.19
2022-11-19T20:19:57.696Z,99734.91
2022-11-19T20:22:25.135Z,99735.31
2022-11-19T20:24:52.921Z,99742.25
2022-11-19T20:27:21.552Z,99749.34
2022-11-19T20:29:49.305Z,99738.56
2022-11-19T20:32:17.101Z,99735.22
2022-11-19T20:34:44.550Z,99741.00
2022-11-19T20:37:12.167Z,99743.69
2022-11-19T20:39:42.588Z,99745.78
2022-11-19T20:42:28.675Z,99733.16
2022-11-19T20:45:11.370Z,99736.75
2022-11-19T20:47:40.313Z,99733.00
2022-11-19T20:50:31.815Z,99733.34
2022-11-19T20:53:02.029Z,99725.66
2022-11-19T20:56:04.713Z,99728.94
2022-11-19T20:58:36.334Z,99731.28
2022-11-19T21:01:18.658Z,99740.91
2022-11-19T21:04:03.529Z,99737.22
2022-11-19T21:06:45.704Z,99732.63
2022-11-19T21:09:28.321Z,99736.44
2022-11-19T21:12:10.348Z,99726.44
2022-11-19T21:14:52.345Z,99720.50
2022-11-19T21:17:34.331Z,99718.34
2022-11-19T21:20:17.297Z,99707.62
2022-11-19T21:23:11.180Z,99709.19
2022-11-19T21:25:44.932Z,99698.06
2022-11-19T21:28:14.214Z,99699.19
2022-11-19T21:30:42.146Z,99700.75
2022-11-19T21:33:10.655Z,99708.62
2022-11-19T21:35:42.669Z,99699.41
2022-11-19T21:38:12.449Z,99684.94
2022-11-19T21:40:40.869Z,99691.88
2022-11-19T21:43:08.352Z,99689.03
2022-11-19T21:45:40.035Z,99698.91
2022-11-19T21:52:28.313Z,99680.63
2022-11-19T21:54:56.536Z,99669.38
2022-11-19T21:57:24.162Z,99671.63
2022-11-19T21:59:52.194Z,99674.97
2022-11-19T22:02:20.341Z,99676.59
2022-11-19T22:04:48.141Z,99663.00
2022-11-19T22:07:16.543Z,99655.38
2022-11-19T22:09:44.075Z,99636.28
2022-11-19T22:12:22.067Z,99634.72
2022-11-19T22:14:49.904Z,99639.22
2022-11-19T22:17:17.351Z,99630.75
2022-11-19T22:19:45.911Z,99633.97
2022-11-19T22:22:13.839Z,99633.56
2022-11-19T22:24:41.274Z,99637.84
2022-11-19T22:27:09.278Z,99637.47
2022-11-19T22:29:38.674Z,99652.94
2022-11-19T22:32:06.777Z,99650.63
2022-11-19T22:34:35.180Z,99635.59
2022-11-19T22:37:05.110Z,99614.22
2022-11-19T22:39:33.864Z,99613.34
2022-11-19T22:42:03.676Z,99609.41
2022-11-19T22:44:31.180Z,99602.38
2022-11-19T22:47:00.899Z,99599.78
2022-11-19T22:49:29.848Z,99611.84
2022-11-19T22:51:57.418Z,99606.94
2022-11-19T22:54:31.861Z,99596.41
2022-11-19T22:56:59.906Z,99606.47
2022-11-19T22:59:27.460Z,99618.25
2022-11-19T23:01:56.614Z,99614.81
2022-11-19T23:04:26.115Z,99618.09
2022-11-19T23:06:53.795Z,99621.97
2022-11-19T23:09:22.910Z,99624.78
2022-11-19T23:12:09.443Z,99635.13
2022-11-19T23:19:13.546Z,99638.22
2022-11-19T23:22:09.210Z,99623.44
2022-11-19T23:24:51.289Z,99613.00
2022-11-19T23:27:33.277Z,99586.97
2022-11-19T23:30:15.560Z,99579.38
2022-11-19T23:33:01.336Z,99583.16
2022-11-19T23:35:43.427Z,99583.31
2022-11-19T23:38:26.053Z,99591.53
2022-11-19T23:41:09.974Z,99585.31
2022-11-19T23:43:56.102Z,99594.25
2022-11-19T23:46:29.347Z,99588.13
2022-11-19T23:48:58.239Z,99593.97
2022-11-19T23:51:28.590Z,99591.09
2022-11-19T23:53:56.589Z,99588.25
2022-11-19T23:56:25.397Z,99578.16
2022-11-19T23:58:54.441Z,99570.22
